Main page
METAR-TAF:

METAR-TAF

Airports :

Oil platform

Goeree Le, Netherlands

latitude: 51-55-33N, longitude: 3-40-12E, elevation: 19 m

Current weather observation

The report was made 21 minutes ago, at 21:55 UTC
Wind 13 kt from the Northwest
Temperature 5°C
Humidity 65%
Pressure 1022 hPa
Visibility 10 km or more

METAR: EHSC 112155Z AUTO 32013KT 9999 ///////// 05/M01 Q1022 W07/H10

Time: 00:16 (22:16 UTC)


TAF: missing

Weather observations and forecasts of more than 4000 airports (METAR and TAF reports).

The available stations are represented by yellow and red dots on the map.

Hover mouse over dot to see the name of the station.

Then click to see weather observations and forecasts.

To change the map : click on the green buttons with a black cross to zoom in, on the green button with a dash to zoom out, or on the green arrows for adjacent maps.


METAR-TAF: